sensor_id;sensor_type;location;lat;lon;timestamp;P1;durP1;ratioP1;P2;durP2;ratioP2
13335;SDS011;6737;51.480;11.962;2023-09-30T00:00:17;5.07;;;1.70;;
13335;SDS011;6737;51.480;11.962;2023-09-30T00:02:42;6.30;;;1.80;;
13335;SDS011;6737;51.480;11.962;2023-09-30T00:05:08;6.50;;;1.65;;
13335;SDS011;6737;51.480;11.962;2023-09-30T00:07:35;6.50;;;1.60;;
13335;SDS011;6737;51.480;11.962;2023-09-30T00:10:01;9.27;;;1.95;;
13335;SDS011;6737;51.480;11.962;2023-09-30T00:12:28;4.75;;;1.60;;
13335;SDS011;6737;51.480;11.962;2023-09-30T00:14:54;6.47;;;1.70;;
13335;SDS011;6737;51.480;11.962;2023-09-30T00:17:20;4.80;;;1.75;;
13335;SDS011;6737;51.480;11.962;2023-09-30T00:19:46;4.85;;;1.90;;
13335;SDS011;6737;51.480;11.962;2023-09-30T00:22:12;5.25;;;2.08;;
13335;SDS011;6737;51.480;11.962;2023-09-30T00:24:37;6.38;;;2.28;;
13335;SDS011;6737;51.480;11.962;2023-09-30T00:27:03;7.05;;;2.35;;
13335;SDS011;6737;51.480;11.962;2023-09-30T00:29:29;5.38;;;2.20;;
13335;SDS011;6737;51.480;11.962;2023-09-30T00:31:55;5.40;;;2.20;;
13335;SDS011;6737;51.480;11.962;2023-09-30T00:34:21;7.13;;;2.30;;
13335;SDS011;6737;51.480;11.962;2023-09-30T00:36:47;4.72;;;2.05;;
13335;SDS011;6737;51.480;11.962;2023-09-30T00:39:12;5.40;;;2.70;;
13335;SDS011;6737;51.480;11.962;2023-09-30T00:41:38;6.25;;;2.35;;
13335;SDS011;6737;51.480;11.962;2023-09-30T00:44:05;18.02;;;3.10;;
13335;SDS011;6737;51.480;11.962;2023-09-30T00:46:32;5.88;;;2.50;;
13335;SDS011;6737;51.480;11.962;2023-09-30T00:49:01;7.28;;;2.50;;
13335;SDS011;6737;51.480;11.962;2023-09-30T00:51:28;5.40;;;2.33;;
13335;SDS011;6737;51.480;11.962;2023-09-30T00:56:23;6.43;;;2.38;;
13335;SDS011;6737;51.480;11.962;2023-09-30T00:58:51;8.05;;;2.60;;
13335;SDS011;6737;51.480;11.962;2023-09-30T01:01:18;7.20;;;2.55;;
13335;SDS011;6737;51.480;11.962;2023-09-30T01:03:45;6.25;;;2.58;;
13335;SDS011;6737;51.480;11.962;2023-09-30T01:06:12;6.63;;;2.85;;
13335;SDS011;6737;51.480;11.962;2023-09-30T01:08:38;7.88;;;2.90;;
13335;SDS011;6737;51.480;11.962;2023-09-30T01:11:04;8.38;;;2.92;;
13335;SDS011;6737;51.480;11.962;2023-09-30T01:13:35;8.23;;;3.00;;
13335;SDS011;6737;51.480;11.962;2023-09-30T01:16:03;6.87;;;2.73;;
13335;SDS011;6737;51.480;11.962;2023-09-30T01:18:37;5.55;;;2.80;;
13335;SDS011;6737;51.480;11.962;2023-09-30T01:21:05;6.93;;;2.78;;
13335;SDS011;6737;51.480;11.962;2023-09-30T01:23:32;6.10;;;2.80;;
13335;SDS011;6737;51.480;11.962;2023-09-30T01:26:02;7.00;;;2.90;;
13335;SDS011;6737;51.480;11.962;2023-09-30T01:28:29;6.93;;;3.00;;
13335;SDS011;6737;51.480;11.962;2023-09-30T01:30:56;8.65;;;2.90;;
13335;SDS011;6737;51.480;11.962;2023-09-30T01:33:22;6.63;;;2.60;;
13335;SDS011;6737;51.480;11.962;2023-09-30T01:35:48;8.25;;;3.00;;
13335;SDS011;6737;51.480;11.962;2023-09-30T01:38:14;6.97;;;3.00;;
13335;SDS011;6737;51.480;11.962;2023-09-30T01:40:40;8.63;;;3.10;;
13335;SDS011;6737;51.480;11.962;2023-09-30T01:43:07;7.95;;;2.90;;
13335;SDS011;6737;51.480;11.962;2023-09-30T01:45:33;7.55;;;3.05;;
13335;SDS011;6737;51.480;11.962;2023-09-30T01:48:01;9.02;;;3.10;;
13335;SDS011;6737;51.480;11.962;2023-09-30T01:50:27;7.90;;;3.17;;
13335;SDS011;6737;51.480;11.962;2023-09-30T01:52:53;8.43;;;3.35;;
13335;SDS011;6737;51.480;11.962;2023-09-30T01:55:19;7.78;;;3.20;;
13335;SDS011;6737;51.480;11.962;2023-09-30T01:57:45;8.25;;;3.30;;
13335;SDS011;6737;51.480;11.962;2023-09-30T02:00:10;6.67;;;3.13;;
13335;SDS011;6737;51.480;11.962;2023-09-30T02:02:38;7.93;;;3.40;;
13335;SDS011;6737;51.480;11.962;2023-09-30T02:05:04;9.13;;;3.70;;
13335;SDS011;6737;51.480;11.962;2023-09-30T02:07:33;9.00;;;3.55;;
13335;SDS011;6737;51.480;11.962;2023-09-30T02:10:00;6.90;;;3.20;;
13335;SDS011;6737;51.480;11.962;2023-09-30T02:12:26;7.38;;;3.30;;
13335;SDS011;6737;51.480;11.962;2023-09-30T02:14:53;9.70;;;3.67;;
13335;SDS011;6737;51.480;11.962;2023-09-30T02:17:19;9.02;;;3.78;;
13335;SDS011;6737;51.480;11.962;2023-09-30T02:19:45;7.87;;;3.40;;
13335;SDS011;6737;51.480;11.962;2023-09-30T02:22:12;11.13;;;3.55;;
13335;SDS011;6737;51.480;11.962;2023-09-30T02:24:38;10.57;;;3.60;;
13335;SDS011;6737;51.480;11.962;2023-09-30T02:27:05;8.65;;;3.60;;
13335;SDS011;6737;51.480;11.962;2023-09-30T02:29:31;10.32;;;3.58;;
13335;SDS011;6737;51.480;11.962;2023-09-30T02:31:57;7.83;;;3.30;;
13335;SDS011;6737;51.480;11.962;2023-09-30T02:34:23;10.48;;;3.60;;
13335;SDS011;6737;51.480;11.962;2023-09-30T02:36:49;10.07;;;3.60;;
13335;SDS011;6737;51.480;11.962;2023-09-30T02:39:15;8.82;;;3.60;;
13335;SDS011;6737;51.480;11.962;2023-09-30T02:41:41;9.23;;;3.58;;
13335;SDS011;6737;51.480;11.962;2023-09-30T02:44:08;9.13;;;3.30;;
13335;SDS011;6737;51.480;11.962;2023-09-30T02:46:34;11.37;;;3.57;;
13335;SDS011;6737;51.480;11.962;2023-09-30T02:49:02;10.50;;;3.70;;
13335;SDS011;6737;51.480;11.962;2023-09-30T02:51:28;10.25;;;3.40;;
13335;SDS011;6737;51.480;11.962;2023-09-30T02:53:55;8.93;;;3.42;;
13335;SDS011;6737;51.480;11.962;2023-09-30T02:56:21;12.23;;;3.78;;
13335;SDS011;6737;51.480;11.962;2023-09-30T02:58:50;10.95;;;3.72;;
13335;SDS011;6737;51.480;11.962;2023-09-30T03:01:17;13.57;;;3.72;;
13335;SDS011;6737;51.480;11.962;2023-09-30T03:03:43;9.65;;;3.30;;
13335;SDS011;6737;51.480;11.962;2023-09-30T03:06:09;11.65;;;4.03;;
13335;SDS011;6737;51.480;11.962;2023-09-30T03:08:36;9.48;;;3.75;;
13335;SDS011;6737;51.480;11.962;2023-09-30T03:11:02;12.07;;;3.60;;
13335;SDS011;6737;51.480;11.962;2023-09-30T03:13:29;9.18;;;3.40;;
13335;SDS011;6737;51.480;11.962;2023-09-30T03:15:56;11.00;;;3.55;;
13335;SDS011;6737;51.480;11.962;2023-09-30T03:18:22;8.98;;;3.33;;
13335;SDS011;6737;51.480;11.962;2023-09-30T03:20:52;10.95;;;3.72;;
13335;SDS011;6737;51.480;11.962;2023-09-30T03:23:25;10.10;;;3.50;;
13335;SDS011;6737;51.480;11.962;2023-09-30T03:25:56;9.45;;;3.50;;
13335;SDS011;6737;51.480;11.962;2023-09-30T03:28:23;9.82;;;3.97;;
13335;SDS011;6737;51.480;11.962;2023-09-30T03:30:49;10.18;;;3.60;;
13335;SDS011;6737;51.480;11.962;2023-09-30T03:33:15;9.52;;;3.30;;
13335;SDS011;6737;51.480;11.962;2023-09-30T03:35:42;11.80;;;3.53;;
13335;SDS011;6737;51.480;11.962;2023-09-30T03:38:10;10.43;;;3.55;;
13335;SDS011;6737;51.480;11.962;2023-09-30T03:40:39;10.48;;;3.75;;
13335;SDS011;6737;51.480;11.962;2023-09-30T03:43:05;7.80;;;3.17;;
13335;SDS011;6737;51.480;11.962;2023-09-30T03:45:31;10.23;;;3.60;;
13335;SDS011;6737;51.480;11.962;2023-09-30T03:48:00;9.50;;;3.30;;
13335;SDS011;6737;51.480;11.962;2023-09-30T03:50:27;9.93;;;3.50;;
13335;SDS011;6737;51.480;11.962;2023-09-30T03:53:04;9.07;;;3.40;;
13335;SDS011;6737;51.480;11.962;2023-09-30T03:55:33;10.65;;;3.30;;
13335;SDS011;6737;51.480;11.962;2023-09-30T03:57:59;10.20;;;3.35;;
13335;SDS011;6737;51.480;11.962;2023-09-30T04:00:25;9.10;;;3.15;;
13335;SDS011;6737;51.480;11.962;2023-09-30T04:02:51;11.73;;;3.20;;
13335;SDS011;6737;51.480;11.962;2023-09-30T04:05:26;11.85;;;3.58;;
13335;SDS011;6737;51.480;11.962;2023-09-30T04:07:57;6.93;;;3.50;;
13335;SDS011;6737;51.480;11.962;2023-09-30T04:10:23;7.85;;;3.05;;
13335;SDS011;6737;51.480;11.962;2023-09-30T04:12:50;14.50;;;3.58;;
13335;SDS011;6737;51.480;11.962;2023-09-30T04:15:17;10.32;;;3.40;;
13335;SDS011;6737;51.480;11.962;2023-09-30T04:17:43;8.80;;;3.07;;
13335;SDS011;6737;51.480;11.962;2023-09-30T04:20:10;9.60;;;3.03;;
13335;SDS011;6737;51.480;11.962;2023-09-30T04:22:41;8.25;;;3.28;;
13335;SDS011;6737;51.480;11.962;2023-09-30T04:25:14;9.00;;;3.28;;
13335;SDS011;6737;51.480;11.962;2023-09-30T04:27:44;10.40;;;3.28;;
13335;SDS011;6737;51.480;11.962;2023-09-30T04:30:13;11.88;;;3.13;;
13335;SDS011;6737;51.480;11.962;2023-09-30T04:32:40;9.70;;;3.50;;
13335;SDS011;6737;51.480;11.962;2023-09-30T04:35:06;9.50;;;3.45;;
13335;SDS011;6737;51.480;11.962;2023-09-30T04:37:35;10.30;;;3.25;;
13335;SDS011;6737;51.480;11.962;2023-09-30T04:40:05;9.20;;;2.90;;
13335;SDS011;6737;51.480;11.962;2023-09-30T04:42:47;8.47;;;3.70;;
13335;SDS011;6737;51.480;11.962;2023-09-30T04:45:15;8.77;;;3.10;;
13335;SDS011;6737;51.480;11.962;2023-09-30T04:47:45;9.25;;;3.28;;
13335;SDS011;6737;51.480;11.962;2023-09-30T04:50:11;12.45;;;3.70;;
13335;SDS011;6737;51.480;11.962;2023-09-30T04:52:38;10.18;;;3.60;;
13335;SDS011;6737;51.480;11.962;2023-09-30T04:55:06;7.50;;;3.15;;
13335;SDS011;6737;51.480;11.962;2023-09-30T04:57:33;9.00;;;3.05;;
13335;SDS011;6737;51.480;11.962;2023-09-30T04:59:59;11.15;;;3.58;;
13335;SDS011;6737;51.480;11.962;2023-09-30T05:02:26;10.57;;;3.35;;
13335;SDS011;6737;51.480;11.962;2023-09-30T05:04:52;13.65;;;4.03;;
13335;SDS011;6737;51.480;11.962;2023-09-30T05:07:21;8.27;;;3.30;;
13335;SDS011;6737;51.480;11.962;2023-09-30T05:09:47;8.73;;;3.40;;
13335;SDS011;6737;51.480;11.962;2023-09-30T05:12:13;11.60;;;3.60;;
13335;SDS011;6737;51.480;11.962;2023-09-30T05:14:40;9.23;;;2.97;;
13335;SDS011;6737;51.480;11.962;2023-09-30T05:17:05;9.70;;;3.70;;
13335;SDS011;6737;51.480;11.962;2023-09-30T05:19:33;10.40;;;3.20;;
13335;SDS011;6737;51.480;11.962;2023-09-30T05:21:59;15.30;;;3.70;;
13335;SDS011;6737;51.480;11.962;2023-09-30T05:24:27;10.63;;;3.50;;
13335;SDS011;6737;51.480;11.962;2023-09-30T05:26:53;9.53;;;3.47;;
13335;SDS011;6737;51.480;11.962;2023-09-30T05:29:19;13.03;;;3.73;;
13335;SDS011;6737;51.480;11.962;2023-09-30T05:31:45;10.77;;;3.20;;
13335;SDS011;6737;51.480;11.962;2023-09-30T05:34:12;11.53;;;3.00;;
13335;SDS011;6737;51.480;11.962;2023-09-30T05:36:38;10.40;;;3.30;;
13335;SDS011;6737;51.480;11.962;2023-09-30T05:39:03;8.60;;;3.47;;
13335;SDS011;6737;51.480;11.962;2023-09-30T05:41:30;8.90;;;3.27;;
13335;SDS011;6737;51.480;11.962;2023-09-30T05:43:56;8.98;;;3.55;;
13335;SDS011;6737;51.480;11.962;2023-09-30T05:46:24;7.80;;;3.47;;
13335;SDS011;6737;51.480;11.962;2023-09-30T05:48:50;9.47;;;3.33;;
13335;SDS011;6737;51.480;11.962;2023-09-30T05:51:16;9.40;;;3.40;;
13335;SDS011;6737;51.480;11.962;2023-09-30T05:53:41;9.57;;;3.30;;
13335;SDS011;6737;51.480;11.962;2023-09-30T05:56:07;8.40;;;3.20;;
13335;SDS011;6737;51.480;11.962;2023-09-30T05:58:36;9.77;;;3.13;;
13335;SDS011;6737;51.480;11.962;2023-09-30T06:01:07;9.87;;;3.40;;
13335;SDS011;6737;51.480;11.962;2023-09-30T06:03:36;10.53;;;3.70;;
13335;SDS011;6737;51.480;11.962;2023-09-30T06:06:14;9.63;;;3.20;;
13335;SDS011;6737;51.480;11.962;2023-09-30T06:08:43;9.13;;;2.83;;
13335;SDS011;6737;51.480;11.962;2023-09-30T06:11:18;10.50;;;3.77;;
13335;SDS011;6737;51.480;11.962;2023-09-30T06:13:45;9.57;;;3.37;;
13335;SDS011;6737;51.480;11.962;2023-09-30T06:16:14;12.50;;;3.10;;
13335;SDS011;6737;51.480;11.962;2023-09-30T06:18:41;8.33;;;3.27;;
13335;SDS011;6737;51.480;11.962;2023-09-30T06:21:07;8.77;;;3.17;;
13335;SDS011;6737;51.480;11.962;2023-09-30T06:23:35;8.10;;;3.40;;
13335;SDS011;6737;51.480;11.962;2023-09-30T06:26:01;10.48;;;3.03;;
13335;SDS011;6737;51.480;11.962;2023-09-30T06:28:29;9.63;;;3.25;;
13335;SDS011;6737;51.480;11.962;2023-09-30T06:30:58;8.60;;;3.30;;
13335;SDS011;6737;51.480;11.962;2023-09-30T06:33:24;8.03;;;3.20;;
13335;SDS011;6737;51.480;11.962;2023-09-30T06:35:50;11.25;;;3.13;;
13335;SDS011;6737;51.480;11.962;2023-09-30T06:38:19;7.90;;;2.92;;
13335;SDS011;6737;51.480;11.962;2023-09-30T06:40:45;6.80;;;3.38;;
13335;SDS011;6737;51.480;11.962;2023-09-30T06:43:13;11.97;;;3.77;;
13335;SDS011;6737;51.480;11.962;2023-09-30T06:45:41;9.02;;;3.17;;
13335;SDS011;6737;51.480;11.962;2023-09-30T06:48:08;8.32;;;3.30;;
13335;SDS011;6737;51.480;11.962;2023-09-30T06:50:39;11.50;;;3.13;;
13335;SDS011;6737;51.480;11.962;2023-09-30T06:53:08;9.40;;;3.13;;
13335;SDS011;6737;51.480;11.962;2023-09-30T06:55:34;7.23;;;2.70;;
13335;SDS011;6737;51.480;11.962;2023-09-30T06:58:03;6.22;;;2.50;;
13335;SDS011;6737;51.480;11.962;2023-09-30T07:00:32;9.23;;;3.10;;
13335;SDS011;6737;51.480;11.962;2023-09-30T07:02:58;7.40;;;3.03;;
13335;SDS011;6737;51.480;11.962;2023-09-30T07:05:24;8.87;;;3.30;;
13335;SDS011;6737;51.480;11.962;2023-09-30T07:07:50;8.37;;;2.90;;
13335;SDS011;6737;51.480;11.962;2023-09-30T07:10:16;8.97;;;3.30;;
13335;SDS011;6737;51.480;11.962;2023-09-30T07:12:42;8.00;;;3.15;;
13335;SDS011;6737;51.480;11.962;2023-09-30T07:15:08;8.77;;;2.90;;
13335;SDS011;6737;51.480;11.962;2023-09-30T07:17:34;7.03;;;2.78;;
13335;SDS011;6737;51.480;11.962;2023-09-30T07:20:01;8.13;;;3.10;;
13335;SDS011;6737;51.480;11.962;2023-09-30T07:22:27;7.70;;;3.33;;
13335;SDS011;6737;51.480;11.962;2023-09-30T07:24:53;7.78;;;2.97;;
13335;SDS011;6737;51.480;11.962;2023-09-30T07:27:19;7.07;;;3.07;;
13335;SDS011;6737;51.480;11.962;2023-09-30T07:29:45;10.27;;;3.70;;
13335;SDS011;6737;51.480;11.962;2023-09-30T07:32:10;10.65;;;3.47;;
13335;SDS011;6737;51.480;11.962;2023-09-30T07:34:36;10.60;;;3.58;;
13335;SDS011;6737;51.480;11.962;2023-09-30T07:37:02;9.38;;;2.95;;
13335;SDS011;6737;51.480;11.962;2023-09-30T07:39:29;9.70;;;3.53;;
13335;SDS011;6737;51.480;11.962;2023-09-30T07:41:56;7.78;;;3.15;;
13335;SDS011;6737;51.480;11.962;2023-09-30T07:44:22;10.00;;;3.10;;
13335;SDS011;6737;51.480;11.962;2023-09-30T07:46:47;10.30;;;3.80;;
13335;SDS011;6737;51.480;11.962;2023-09-30T07:49:13;8.88;;;3.17;;
13335;SDS011;6737;51.480;11.962;2023-09-30T07:51:39;9.88;;;3.30;;
13335;SDS011;6737;51.480;11.962;2023-09-30T07:54:05;8.85;;;3.38;;
13335;SDS011;6737;51.480;11.962;2023-09-30T07:56:31;9.48;;;3.22;;
13335;SDS011;6737;51.480;11.962;2023-09-30T07:58:57;12.20;;;3.55;;
13335;SDS011;6737;51.480;11.962;2023-09-30T08:01:23;10.52;;;3.35;;
13335;SDS011;6737;51.480;11.962;2023-09-30T08:03:49;10.90;;;3.17;;
13335;SDS011;6737;51.480;11.962;2023-09-30T08:06:15;11.05;;;3.30;;
13335;SDS011;6737;51.480;11.962;2023-09-30T08:08:41;8.77;;;3.10;;
13335;SDS011;6737;51.480;11.962;2023-09-30T08:11:07;7.55;;;3.05;;
13335;SDS011;6737;51.480;11.962;2023-09-30T08:13:33;9.70;;;3.10;;
13335;SDS011;6737;51.480;11.962;2023-09-30T08:15:59;6.80;;;3.05;;
13335;SDS011;6737;51.480;11.962;2023-09-30T08:18:25;9.60;;;3.30;;
13335;SDS011;6737;51.480;11.962;2023-09-30T08:20:50;6.80;;;3.00;;
13335;SDS011;6737;51.480;11.962;2023-09-30T08:23:16;8.40;;;2.97;;
13335;SDS011;6737;51.480;11.962;2023-09-30T08:25:42;10.93;;;3.10;;
13335;SDS011;6737;51.480;11.962;2023-09-30T08:28:09;10.68;;;3.42;;
13335;SDS011;6737;51.480;11.962;2023-09-30T08:30:35;10.48;;;2.75;;
13335;SDS011;6737;51.480;11.962;2023-09-30T08:33:02;9.70;;;3.17;;
13335;SDS011;6737;51.480;11.962;2023-09-30T08:35:29;13.52;;;3.40;;
13335;SDS011;6737;51.480;11.962;2023-09-30T08:37:57;7.78;;;2.90;;
13335;SDS011;6737;51.480;11.962;2023-09-30T08:40:23;8.90;;;3.03;;
13335;SDS011;6737;51.480;11.962;2023-09-30T08:42:51;9.88;;;3.05;;
13335;SDS011;6737;51.480;11.962;2023-09-30T08:45:18;10.05;;;3.17;;
13335;SDS011;6737;51.480;11.962;2023-09-30T08:47:44;9.52;;;3.10;;
13335;SDS011;6737;51.480;11.962;2023-09-30T08:50:11;7.78;;;2.83;;
13335;SDS011;6737;51.480;11.962;2023-09-30T08:52:39;8.32;;;2.80;;
13335;SDS011;6737;51.480;11.962;2023-09-30T08:55:07;7.63;;;2.58;;
13335;SDS011;6737;51.480;11.962;2023-09-30T08:57:35;10.98;;;2.88;;
13335;SDS011;6737;51.480;11.962;2023-09-30T09:00:06;12.02;;;2.97;;
13335;SDS011;6737;51.480;11.962;2023-09-30T09:02:38;11.85;;;2.92;;
13335;SDS011;6737;51.480;11.962;2023-09-30T09:05:05;9.35;;;2.80;;
13335;SDS011;6737;51.480;11.962;2023-09-30T09:07:31;11.95;;;3.08;;
13335;SDS011;6737;51.480;11.962;2023-09-30T09:10:04;10.02;;;3.00;;
13335;SDS011;6737;51.480;11.962;2023-09-30T09:12:39;12.32;;;2.90;;
13335;SDS011;6737;51.480;11.962;2023-09-30T09:15:07;8.90;;;2.88;;
13335;SDS011;6737;51.480;11.962;2023-09-30T09:17:45;11.93;;;2.85;;
13335;SDS011;6737;51.480;11.962;2023-09-30T09:20:18;10.35;;;3.13;;
13335;SDS011;6737;51.480;11.962;2023-09-30T09:22:49;7.40;;;2.88;;
13335;SDS011;6737;51.480;11.962;2023-09-30T09:25:19;11.38;;;2.67;;
13335;SDS011;6737;51.480;11.962;2023-09-30T09:27:48;8.27;;;2.55;;
13335;SDS011;6737;51.480;11.962;2023-09-30T09:35:20;8.55;;;2.63;;
13335;SDS011;6737;51.480;11.962;2023-09-30T09:38:08;11.68;;;3.35;;
13335;SDS011;6737;51.480;11.962;2023-09-30T09:40:36;8.30;;;3.08;;
13335;SDS011;6737;51.480;11.962;2023-09-30T09:43:04;5.28;;;2.30;;
13335;SDS011;6737;51.480;11.962;2023-09-30T09:45:34;9.95;;;2.75;;
13335;SDS011;6737;51.480;11.962;2023-09-30T09:48:03;8.82;;;2.78;;
13335;SDS011;6737;51.480;11.962;2023-09-30T09:50:30;9.05;;;2.70;;
13335;SDS011;6737;51.480;11.962;2023-09-30T09:53:01;12.18;;;2.60;;
13335;SDS011;6737;51.480;11.962;2023-09-30T09:55:28;7.88;;;2.50;;
13335;SDS011;6737;51.480;11.962;2023-09-30T09:57:54;7.40;;;2.50;;
13335;SDS011;6737;51.480;11.962;2023-09-30T10:00:26;8.13;;;2.78;;
13335;SDS011;6737;51.480;11.962;2023-09-30T10:02:52;10.55;;;2.50;;
13335;SDS011;6737;51.480;11.962;2023-09-30T10:05:19;9.52;;;2.30;;
13335;SDS011;6737;51.480;11.962;2023-09-30T10:10:17;6.57;;;2.45;;
13335;SDS011;6737;51.480;11.962;2023-09-30T10:12:45;6.13;;;2.30;;
13335;SDS011;6737;51.480;11.962;2023-09-30T10:17:59;8.90;;;2.60;;
13335;SDS011;6737;51.480;11.962;2023-09-30T10:20:29;8.75;;;2.65;;
13335;SDS011;6737;51.480;11.962;2023-09-30T10:23:18;8.23;;;2.30;;
13335;SDS011;6737;51.480;11.962;2023-09-30T10:25:46;8.73;;;2.42;;
13335;SDS011;6737;51.480;11.962;2023-09-30T10:31:15;7.35;;;2.33;;
13335;SDS011;6737;51.480;11.962;2023-09-30T10:36:31;7.85;;;2.80;;
13335;SDS011;6737;51.480;11.962;2023-09-30T10:39:01;8.43;;;2.80;;
13335;SDS011;6737;51.480;11.962;2023-09-30T10:46:59;10.05;;;2.60;;
13335;SDS011;6737;51.480;11.962;2023-09-30T10:49:46;10.32;;;2.47;;
13335;SDS011;6737;51.480;11.962;2023-09-30T10:52:12;7.65;;;2.03;;
13335;SDS011;6737;51.480;11.962;2023-09-30T10:54:51;8.07;;;2.30;;
13335;SDS011;6737;51.480;11.962;2023-09-30T10:57:26;5.70;;;2.17;;
13335;SDS011;6737;51.480;11.962;2023-09-30T11:00:08;8.07;;;2.42;;
13335;SDS011;6737;51.480;11.962;2023-09-30T11:02:49;8.93;;;2.55;;
13335;SDS011;6737;51.480;11.962;2023-09-30T11:05:17;7.60;;;2.38;;
13335;SDS011;6737;51.480;11.962;2023-09-30T11:07:44;5.40;;;2.25;;
13335;SDS011;6737;51.480;11.962;2023-09-30T11:10:16;8.52;;;2.53;;
13335;SDS011;6737;51.480;11.962;2023-09-30T11:12:56;7.07;;;2.25;;
13335;SDS011;6737;51.480;11.962;2023-09-30T11:15:23;8.07;;;1.98;;
13335;SDS011;6737;51.480;11.962;2023-09-30T11:17:51;7.63;;;2.30;;
13335;SDS011;6737;51.480;11.962;2023-09-30T11:20:17;7.95;;;2.20;;
13335;SDS011;6737;51.480;11.962;2023-09-30T11:22:44;6.45;;;2.28;;
13335;SDS011;6737;51.480;11.962;2023-09-30T11:25:17;7.15;;;2.22;;
13335;SDS011;6737;51.480;11.962;2023-09-30T11:27:44;7.22;;;2.55;;
13335;SDS011;6737;51.480;11.962;2023-09-30T11:30:12;6.70;;;2.25;;
13335;SDS011;6737;51.480;11.962;2023-09-30T11:32:38;7.60;;;2.10;;
13335;SDS011;6737;51.480;11.962;2023-09-30T11:35:08;8.00;;;2.20;;
13335;SDS011;6737;51.480;11.962;2023-09-30T11:37:36;5.47;;;2.00;;
13335;SDS011;6737;51.480;11.962;2023-09-30T11:40:09;6.88;;;1.88;;
13335;SDS011;6737;51.480;11.962;2023-09-30T11:42:39;7.57;;;2.50;;
13335;SDS011;6737;51.480;11.962;2023-09-30T11:45:21;6.97;;;2.15;;
13335;SDS011;6737;51.480;11.962;2023-09-30T11:47:47;6.78;;;1.90;;
13335;SDS011;6737;51.480;11.962;2023-09-30T11:50:13;7.65;;;2.00;;
13335;SDS011;6737;51.480;11.962;2023-09-30T11:52:39;8.48;;;2.08;;
13335;SDS011;6737;51.480;11.962;2023-09-30T11:55:12;7.38;;;2.00;;
13335;SDS011;6737;51.480;11.962;2023-09-30T11:57:37;6.57;;;2.03;;
13335;SDS011;6737;51.480;11.962;2023-09-30T12:00:04;7.70;;;2.30;;
13335;SDS011;6737;51.480;11.962;2023-09-30T12:02:38;6.93;;;2.15;;
13335;SDS011;6737;51.480;11.962;2023-09-30T12:05:07;8.27;;;1.95;;
13335;SDS011;6737;51.480;11.962;2023-09-30T12:07:37;8.43;;;2.33;;
13335;SDS011;6737;51.480;11.962;2023-09-30T12:10:07;7.03;;;2.25;;
13335;SDS011;6737;51.480;11.962;2023-09-30T12:12:34;6.13;;;2.03;;
13335;SDS011;6737;51.480;11.962;2023-09-30T12:14:59;5.38;;;1.90;;
13335;SDS011;6737;51.480;11.962;2023-09-30T12:17:25;6.00;;;1.70;;
13335;SDS011;6737;51.480;11.962;2023-09-30T12:19:51;6.45;;;2.10;;
13335;SDS011;6737;51.480;11.962;2023-09-30T12:22:17;7.93;;;2.05;;
13335;SDS011;6737;51.480;11.962;2023-09-30T12:24:43;7.28;;;2.30;;
13335;SDS011;6737;51.480;11.962;2023-09-30T12:27:09;6.20;;;2.20;;
13335;SDS011;6737;51.480;11.962;2023-09-30T12:29:35;6.60;;;2.00;;
13335;SDS011;6737;51.480;11.962;2023-09-30T12:32:03;6.75;;;2.10;;
13335;SDS011;6737;51.480;11.962;2023-09-30T12:34:30;6.68;;;1.90;;
13335;SDS011;6737;51.480;11.962;2023-09-30T12:36:58;5.60;;;1.92;;
13335;SDS011;6737;51.480;11.962;2023-09-30T12:39:24;6.00;;;1.70;;
13335;SDS011;6737;51.480;11.962;2023-09-30T12:41:51;7.28;;;2.17;;
13335;SDS011;6737;51.480;11.962;2023-09-30T12:44:17;8.80;;;1.83;;
13335;SDS011;6737;51.480;11.962;2023-09-30T12:46:43;5.93;;;1.80;;
13335;SDS011;6737;51.480;11.962;2023-09-30T12:49:09;7.13;;;1.88;;
13335;SDS011;6737;51.480;11.962;2023-09-30T12:51:35;7.13;;;2.08;;
13335;SDS011;6737;51.480;11.962;2023-09-30T12:54:04;5.68;;;1.80;;
13335;SDS011;6737;51.480;11.962;2023-09-30T12:56:30;5.95;;;2.17;;
13335;SDS011;6737;51.480;11.962;2023-09-30T12:58:57;5.82;;;1.92;;
13335;SDS011;6737;51.480;11.962;2023-09-30T13:01:24;8.30;;;2.13;;
13335;SDS011;6737;51.480;11.962;2023-09-30T13:03:50;5.05;;;1.95;;
13335;SDS011;6737;51.480;11.962;2023-09-30T13:06:17;6.00;;;2.25;;
13335;SDS011;6737;51.480;11.962;2023-09-30T13:08:44;7.15;;;2.08;;
13335;SDS011;6737;51.480;11.962;2023-09-30T13:11:09;7.78;;;1.90;;
13335;SDS011;6737;51.480;11.962;2023-09-30T13:13:36;8.68;;;2.13;;
13335;SDS011;6737;51.480;11.962;2023-09-30T13:16:03;6.63;;;2.17;;
13335;SDS011;6737;51.480;11.962;2023-09-30T13:18:35;7.60;;;2.22;;
13335;SDS011;6737;51.480;11.962;2023-09-30T13:21:02;6.28;;;1.98;;
13335;SDS011;6737;51.480;11.962;2023-09-30T13:23:31;6.05;;;1.92;;
13335;SDS011;6737;51.480;11.962;2023-09-30T13:25:57;6.60;;;2.10;;
13335;SDS011;6737;51.480;11.962;2023-09-30T13:28:22;4.75;;;1.70;;
13335;SDS011;6737;51.480;11.962;2023-09-30T13:30:48;5.35;;;1.83;;
13335;SDS011;6737;51.480;11.962;2023-09-30T13:33:14;5.40;;;1.75;;
13335;SDS011;6737;51.480;11.962;2023-09-30T13:35:40;7.68;;;2.10;;
13335;SDS011;6737;51.480;11.962;2023-09-30T13:38:06;8.18;;;1.80;;
13335;SDS011;6737;51.480;11.962;2023-09-30T13:40:31;7.07;;;1.90;;
13335;SDS011;6737;51.480;11.962;2023-09-30T13:42:57;6.93;;;2.10;;
13335;SDS011;6737;51.480;11.962;2023-09-30T13:45:25;3.97;;;1.60;;
13335;SDS011;6737;51.480;11.962;2023-09-30T13:47:53;5.18;;;1.73;;
13335;SDS011;6737;51.480;11.962;2023-09-30T13:50:19;7.82;;;2.08;;
13335;SDS011;6737;51.480;11.962;2023-09-30T13:52:45;5.72;;;1.90;;
13335;SDS011;6737;51.480;11.962;2023-09-30T13:55:10;6.07;;;1.88;;
13335;SDS011;6737;51.480;11.962;2023-09-30T13:57:37;5.75;;;1.90;;
13335;SDS011;6737;51.480;11.962;2023-09-30T14:00:03;7.32;;;1.90;;
13335;SDS011;6737;51.480;11.962;2023-09-30T14:02:36;5.23;;;2.00;;
13335;SDS011;6737;51.480;11.962;2023-09-30T14:05:03;6.97;;;1.92;;
13335;SDS011;6737;51.480;11.962;2023-09-30T14:07:29;5.30;;;1.70;;
13335;SDS011;6737;51.480;11.962;2023-09-30T14:09:55;6.00;;;2.00;;
13335;SDS011;6737;51.480;11.962;2023-09-30T14:12:21;6.35;;;1.90;;
13335;SDS011;6737;51.480;11.962;2023-09-30T14:14:47;5.75;;;2.15;;
13335;SDS011;6737;51.480;11.962;2023-09-30T14:17:13;4.57;;;1.70;;
13335;SDS011;6737;51.480;11.962;2023-09-30T14:19:40;5.18;;;1.85;;
13335;SDS011;6737;51.480;11.962;2023-09-30T14:22:06;7.15;;;2.00;;
13335;SDS011;6737;51.480;11.962;2023-09-30T14:24:33;5.65;;;1.90;;
13335;SDS011;6737;51.480;11.962;2023-09-30T14:27:00;7.40;;;1.90;;
13335;SDS011;6737;51.480;11.962;2023-09-30T14:29:30;6.03;;;1.70;;
13335;SDS011;6737;51.480;11.962;2023-09-30T14:31:56;5.00;;;1.70;;
13335;SDS011;6737;51.480;11.962;2023-09-30T14:34:23;4.88;;;1.90;;
13335;SDS011;6737;51.480;11.962;2023-09-30T14:36:49;5.55;;;1.77;;
13335;SDS011;6737;51.480;11.962;2023-09-30T14:39:16;6.53;;;2.17;;
13335;SDS011;6737;51.480;11.962;2023-09-30T14:41:45;5.38;;;1.83;;
13335;SDS011;6737;51.480;11.962;2023-09-30T14:44:10;6.47;;;1.90;;
13335;SDS011;6737;51.480;11.962;2023-09-30T14:46:39;5.45;;;1.77;;
13335;SDS011;6737;51.480;11.962;2023-09-30T14:49:05;6.70;;;1.90;;
13335;SDS011;6737;51.480;11.962;2023-09-30T14:51:32;5.10;;;1.90;;
13335;SDS011;6737;51.480;11.962;2023-09-30T14:53:58;5.63;;;1.88;;
13335;SDS011;6737;51.480;11.962;2023-09-30T14:56:24;4.72;;;2.00;;
13335;SDS011;6737;51.480;11.962;2023-09-30T14:58:50;5.77;;;1.93;;
13335;SDS011;6737;51.480;11.962;2023-09-30T15:01:15;4.80;;;1.88;;
13335;SDS011;6737;51.480;11.962;2023-09-30T15:03:42;5.00;;;1.63;;
13335;SDS011;6737;51.480;11.962;2023-09-30T15:06:09;5.60;;;2.10;;
13335;SDS011;6737;51.480;11.962;2023-09-30T15:08:35;4.25;;;1.58;;
13335;SDS011;6737;51.480;11.962;2023-09-30T15:11:01;4.78;;;1.70;;